createdAt,value
2018-12-01T00:01:56.714Z,7.80
2018-12-01T00:04:25.088Z,7.80
2018-12-01T00:06:53.402Z,7.80
2018-12-01T00:09:21.866Z,7.80
2018-12-01T00:11:50.246Z,7.70
2018-12-01T00:14:18.608Z,7.70
2018-12-01T00:16:47.165Z,7.60
2018-12-01T00:19:15.455Z,7.60
2018-12-01T00:21:44.198Z,7.60
2018-12-01T00:24:12.752Z,7.50
2018-12-01T00:26:41.209Z,7.50
2018-12-01T00:29:09.482Z,7.40
2018-12-01T00:31:37.772Z,7.30
2018-12-01T00:34:06.379Z,7.30
2018-12-01T00:36:34.857Z,7.20
2018-12-01T00:39:05.864Z,7.20
2018-12-01T00:41:34.205Z,7.20
2018-12-01T00:44:02.527Z,7.20
2018-12-01T00:46:31.075Z,7.20
2018-12-01T00:48:59.490Z,7.20
2018-12-01T00:51:27.935Z,7.20
2018-12-01T00:53:56.279Z,7.20
2018-12-01T00:56:24.665Z,7.20
2018-12-01T00:58:53.000Z,7.20
2018-12-01T01:01:21.391Z,7.30
2018-12-01T01:03:49.601Z,7.30
2018-12-01T01:06:17.949Z,7.30
2018-12-01T01:08:46.408Z,7.30
2018-12-01T01:11:14.792Z,7.30
2018-12-01T01:13:43.033Z,7.30
2018-12-01T01:16:11.275Z,7.30
2018-12-01T01:18:39.727Z,7.30
2018-12-01T01:21:08.198Z,7.30
2018-12-01T01:23:36.481Z,7.40
2018-12-01T01:26:04.985Z,7.30
2018-12-01T01:28:33.458Z,7.40
2018-12-01T01:31:01.938Z,7.40
2018-12-01T01:33:30.814Z,7.40
2018-12-01T01:35:59.267Z,7.30
2018-12-01T01:38:27.813Z,7.30
2018-12-01T01:41:01.696Z,7.30
2018-12-01T01:43:30.098Z,7.30
2018-12-01T01:45:58.597Z,7.30
2018-12-01T01:48:26.963Z,7.40
2018-12-01T01:50:55.355Z,7.30
2018-12-01T01:53:23.691Z,7.30
2018-12-01T01:55:52.010Z,7.30
2018-12-01T01:58:20.727Z,7.30
2018-12-01T02:00:49.059Z,7.30
2018-12-01T02:03:17.519Z,7.30
2018-12-01T02:05:46.409Z,7.30
2018-12-01T02:08:14.710Z,7.30
2018-12-01T02:10:43.123Z,7.30
2018-12-01T02:13:11.510Z,7.30
2018-12-01T02:15:39.831Z,7.30
2018-12-01T02:18:08.291Z,7.40
2018-12-01T02:20:37.114Z,7.40
2018-12-01T02:23:05.486Z,7.40
2018-12-01T02:25:33.915Z,7.40
2018-12-01T02:28:02.358Z,7.40
2018-12-01T02:30:30.720Z,7.40
2018-12-01T02:32:59.189Z,7.40
2018-12-01T02:35:29.918Z,7.40
2018-12-01T02:37:58.340Z,7.40
2018-12-01T02:40:26.774Z,7.40
2018-12-01T02:42:55.248Z,7.40
2018-12-01T02:45:40.337Z,7.40
2018-12-01T02:48:08.621Z,7.40
2018-12-01T02:50:36.951Z,7.30
2018-12-01T02:53:05.283Z,7.30
2018-12-01T02:55:33.651Z,7.30
2018-12-01T02:58:02.119Z,7.30
2018-12-01T03:00:30.448Z,7.30
2018-12-01T03:02:58.724Z,7.30
2018-12-01T03:05:27.305Z,7.30
2018-12-01T03:07:55.682Z,7.20
2018-12-01T03:10:24.080Z,7.20
2018-12-01T03:12:53.557Z,7.20
2018-12-01T03:15:22.128Z,7.20
2018-12-01T03:17:51.402Z,7.20
2018-12-01T03:20:19.759Z,7.20
2018-12-01T03:22:48.437Z,7.20
2018-12-01T03:25:22.745Z,7.20
2018-12-01T03:27:52.480Z,7.20
2018-12-01T03:30:21.812Z,7.20
2018-12-01T03:32:51.524Z,7.10
2018-12-01T03:35:21.035Z,7.10
2018-12-01T03:37:50.112Z,7.20
2018-12-01T03:40:20.190Z,7.20
2018-12-01T03:42:49.496Z,7.20
2018-12-01T03:45:19.319Z,7.10
2018-12-01T03:47:47.759Z,7.10
2018-12-01T03:50:24.085Z,7.20
2018-12-01T03:52:56.027Z,7.20
2018-12-01T03:55:30.740Z,7.20
2018-12-01T03:57:59.461Z,7.30
2018-12-01T04:00:28.571Z,7.30
2018-12-01T04:02:58.076Z,7.30
2018-12-01T04:05:26.701Z,7.40
2018-12-01T04:07:55.243Z,7.40
2018-12-01T04:10:23.655Z,7.40
2018-12-01T04:12:53.122Z,7.40
2018-12-01T04:15:21.561Z,7.30
2018-12-01T04:17:49.962Z,7.40
2018-12-01T04:20:18.495Z,7.40
2018-12-01T04:22:46.758Z,7.40
2018-12-01T04:25:15.198Z,7.40
2018-12-01T04:27:43.514Z,7.40
2018-12-01T04:30:16.314Z,7.30
2018-12-01T04:32:45.413Z,7.30
2018-12-01T04:35:20.505Z,7.40
2018-12-01T04:37:54.227Z,7.40
2018-12-01T04:40:22.787Z,7.30
2018-12-01T04:42:51.210Z,7.30
2018-12-01T04:45:19.522Z,7.30
2018-12-01T04:47:47.918Z,7.30
2018-12-01T04:50:17.667Z,7.20
2018-12-01T04:52:47.380Z,7.20
2018-12-01T04:55:17.267Z,7.10
2018-12-01T04:57:45.595Z,7.10
2018-12-01T05:00:19.167Z,7.00
2018-12-01T05:02:47.607Z,6.90
2018-12-01T05:05:19.821Z,6.80
2018-12-01T05:07:48.460Z,6.80
2018-12-01T05:10:18.106Z,6.70
2018-12-01T05:12:46.327Z,6.70
2018-12-01T05:15:16.794Z,6.70
2018-12-01T05:17:45.368Z,6.60
2018-12-01T05:20:21.883Z,6.60
2018-12-01T05:22:51.124Z,6.60
2018-12-01T05:25:19.585Z,6.50
2018-12-01T05:27:47.974Z,6.50
2018-12-01T05:30:16.339Z,6.40
2018-12-01T05:32:44.989Z,6.40
2018-12-01T05:35:17.296Z,6.30
2018-12-01T05:37:45.770Z,6.30
2018-12-01T05:40:14.348Z,6.20
2018-12-01T05:42:42.677Z,6.20
2018-12-01T05:45:18.288Z,6.10
2018-12-01T05:47:46.711Z,6.10
2018-12-01T05:50:21.447Z,6.10
2018-12-01T05:52:52.765Z,6.00
2018-12-01T05:55:21.217Z,6.00
2018-12-01T05:57:49.616Z,6.00
2018-12-01T06:00:18.204Z,5.90
2018-12-01T06:02:46.833Z,5.90
2018-12-01T06:05:15.209Z,5.80
2018-12-01T06:07:44.217Z,5.80
2018-12-01T06:10:14.344Z,5.70
2018-12-01T06:12:43.235Z,5.70
2018-12-01T06:15:13.158Z,5.70
2018-12-01T06:17:41.769Z,5.60
2018-12-01T06:20:22.395Z,5.60
2018-12-01T06:22:50.678Z,5.60
2018-12-01T06:25:21.719Z,5.50
2018-12-01T06:27:50.134Z,5.40
2018-12-01T06:30:20.523Z,5.40
2018-12-01T06:32:50.332Z,5.40
2018-12-01T06:35:18.714Z,5.30
2018-12-01T06:37:47.011Z,5.30
2018-12-01T06:40:18.590Z,5.30
2018-12-01T06:42:47.081Z,5.30
2018-12-01T06:45:16.308Z,5.30
2018-12-01T06:47:45.253Z,5.30
2018-12-01T06:50:16.991Z,5.20
2018-12-01T06:52:45.866Z,5.30
2018-12-01T06:55:14.659Z,5.20
2018-12-01T06:57:44.545Z,5.30
2018-12-01T07:00:18.935Z,5.30
2018-12-01T07:02:48.398Z,5.30
2018-12-01T07:05:17.555Z,5.30
2018-12-01T07:07:46.149Z,5.30
2018-12-01T07:10:20.051Z,5.30
2018-12-01T07:12:51.534Z,5.30
2018-12-01T07:15:23.163Z,5.30
2018-12-01T07:17:51.550Z,5.30
2018-12-01T07:20:19.951Z,5.30
2018-12-01T07:22:48.972Z,5.30
2018-12-01T07:25:17.423Z,5.20
2018-12-01T07:27:45.610Z,5.20
2018-12-01T07:30:14.700Z,5.20
2018-12-01T07:32:44.210Z,5.20
2018-12-01T07:35:15.557Z,5.20
2018-12-01T07:37:44.635Z,5.20
2018-12-01T07:40:15.895Z,5.10
2018-12-01T07:42:44.239Z,5.10
2018-12-01T07:45:14.075Z,5.20
2018-12-01T07:47:42.553Z,5.10
2018-12-01T07:50:12.880Z,5.20
2018-12-01T07:52:42.485Z,5.20
2018-12-01T07:55:10.801Z,5.20
2018-12-01T07:57:39.242Z,5.20
2018-12-01T08:00:12.717Z,5.20
2018-12-01T08:02:42.265Z,5.20
2018-12-01T08:05:11.362Z,5.30
2018-12-01T08:07:39.766Z,5.30
2018-12-01T08:10:10.755Z,5.40
2018-12-01T08:12:39.204Z,5.40
2018-12-01T08:15:14.374Z,5.40
2018-12-01T08:17:42.747Z,5.50
2018-12-01T08:20:15.314Z,5.50
2018-12-01T08:22:43.784Z,5.50
2018-12-01T08:25:20.703Z,5.60
2018-12-01T08:27:52.755Z,5.60
2018-12-01T08:30:25.111Z,5.70
2018-12-01T08:32:53.748Z,5.70
2018-12-01T08:35:23.270Z,5.90
2018-12-01T08:37:52.308Z,6.00
2018-12-01T08:40:25.073Z,6.10
2018-12-01T08:42:53.770Z,6.20
2018-12-01T08:45:22.211Z,6.30
2018-12-01T08:47:50.837Z,6.40
2018-12-01T08:50:21.063Z,6.50
2018-12-01T08:52:49.780Z,6.60
2018-12-01T08:55:20.059Z,6.80
2018-12-01T08:57:48.826Z,6.90
2018-12-01T09:00:41.067Z,7.10
2018-12-01T09:03:19.615Z,7.20
2018-12-01T09:05:47.971Z,7.20
2018-12-01T09:08:16.503Z,7.30
2018-12-01T09:10:44.848Z,7.30
2018-12-01T09:13:13.329Z,7.30
2018-12-01T09:15:42.268Z,7.20
2018-12-01T09:18:10.782Z,7.20
2018-12-01T09:20:39.267Z,7.30
2018-12-01T09:23:07.816Z,7.30
2018-12-01T09:25:36.389Z,7.30
2018-12-01T09:28:06.317Z,7.30
2018-12-01T09:30:36.312Z,7.30
2018-12-01T09:33:05.039Z,7.30
2018-12-01T09:35:33.607Z,7.40
2018-12-01T09:38:01.945Z,7.40
2018-12-01T09:40:30.452Z,7.50
2018-12-01T09:42:58.961Z,7.50
2018-12-01T09:45:27.335Z,7.60
2018-12-01T09:47:56.323Z,7.70
2018-12-01T09:50:24.663Z,7.80
2018-12-01T09:52:56.277Z,7.80
2018-12-01T09:55:28.097Z,7.90
2018-12-01T09:57:57.529Z,7.80
2018-12-01T10:00:29.602Z,7.90
2018-12-01T10:02:59.426Z,7.90
2018-12-01T10:05:28.128Z,7.90
2018-12-01T10:07:56.462Z,8.00
2018-12-01T10:10:24.848Z,8.00
2018-12-01T10:12:55.862Z,8.10
2018-12-01T10:15:27.791Z,8.20
2018-12-01T10:20:42.041Z,8.20
2018-12-01T10:23:11.513Z,8.30
2018-12-01T10:25:40.482Z,8.30
2018-12-01T10:28:10.456Z,8.40
2018-12-01T10:30:38.828Z,8.40
2018-12-01T10:33:07.864Z,8.50
2018-12-01T10:35:37.119Z,8.50
2018-12-01T10:38:14.176Z,8.60
2018-12-01T10:40:42.613Z,8.70
2018-12-01T10:43:11.017Z,8.60
2018-12-01T10:45:39.415Z,8.60
2018-12-01T10:48:09.667Z,8.60
2018-12-01T10:50:38.182Z,8.60
2018-12-01T10:53:07.085Z,8.70
2018-12-01T10:55:35.752Z,8.70
2018-12-01T10:58:12.878Z,8.70
2018-12-01T11:00:50.120Z,8.80
2018-12-01T11:03:24.693Z,8.80
2018-12-01T11:05:53.997Z,8.90
2018-12-01T11:08:22.307Z,8.90
2018-12-01T11:10:55.257Z,9.00
2018-12-01T11:13:19.264Z,9.00
2018-12-01T11:15:48.217Z,9.00
2018-12-01T11:18:16.716Z,9.00
2018-12-01T11:20:45.255Z,9.10
2018-12-01T11:23:13.701Z,9.10
2018-12-01T11:25:42.105Z,9.20
2018-12-01T11:28:10.649Z,9.30
2018-12-01T11:30:42.094Z,9.30
2018-12-01T11:33:11.010Z,9.30
2018-12-01T11:35:39.674Z,9.40
2018-12-01T11:38:08.653Z,9.50
2018-12-01T11:40:36.961Z,9.50
2018-12-01T11:43:07.018Z,9.50
2018-12-01T11:45:36.015Z,9.50
2018-12-01T11:48:04.548Z,9.60
2018-12-01T11:50:32.922Z,9.60
2018-12-01T11:53:01.323Z,9.60
2018-12-01T11:55:29.942Z,9.60
2018-12-01T11:57:58.398Z,9.70
2018-12-01T12:00:27.547Z,9.70
2018-12-01T12:02:57.684Z,9.80
2018-12-01T12:05:26.379Z,9.80
2018-12-01T12:08:26.433Z,9.80
2018-12-01T12:10:55.658Z,9.80
2018-12-01T12:13:26.575Z,9.90
2018-12-01T12:15:55.373Z,9.90
2018-12-01T12:18:24.005Z,9.90
2018-12-01T12:20:52.438Z,9.90
2018-12-01T12:23:20.860Z,9.90
2018-12-01T12:25:49.216Z,10.00
2018-12-01T12:28:17.680Z,10.00
2018-12-01T12:30:46.115Z,10.00
2018-12-01T12:33:14.789Z,10.10
2018-12-01T12:35:43.139Z,10.10
2018-12-01T12:38:11.491Z,10.10
2018-12-01T12:40:40.396Z,10.00
2018-12-01T12:43:08.759Z,10.00
2018-12-01T12:45:37.462Z,10.10
2018-12-01T12:48:07.417Z,10.10
2018-12-01T12:50:36.251Z,10.10
2018-12-01T12:53:05.597Z,10.10
2018-12-01T12:55:34.227Z,10.20
2018-12-01T12:58:02.539Z,10.30
2018-12-01T13:00:32.656Z,10.30
2018-12-01T13:03:06.768Z,10.30
2018-12-01T13:05:39.977Z,10.30
2018-12-01T13:08:14.436Z,10.30
2018-12-01T13:10:42.882Z,10.30
2018-12-01T13:13:12.106Z,10.40
2018-12-01T13:15:41.643Z,10.30
2018-12-01T13:18:14.139Z,10.30
2018-12-01T13:20:44.594Z,10.30
2018-12-01T13:23:12.900Z,10.30
2018-12-01T13:25:42.235Z,10.30
2018-12-01T13:28:23.938Z,10.20
2018-12-01T13:31:00.734Z,10.20
2018-12-01T13:33:29.341Z,10.20
2018-12-01T13:35:59.621Z,10.20
2018-12-01T13:38:28.283Z,10.10
2018-12-01T13:40:56.675Z,10.10
2018-12-01T13:43:25.140Z,10.10
2018-12-01T13:45:53.501Z,10.20
2018-12-01T13:48:22.042Z,10.20
2018-12-01T13:50:50.506Z,10.10
2018-12-01T13:53:20.045Z,10.10
2018-12-01T13:55:49.181Z,10.10
2018-12-01T13:58:18.134Z,10.10
2018-12-01T14:00:46.649Z,10.10
2018-12-01T14:03:15.267Z,10.00
2018-12-01T14:05:44.338Z,10.10
2018-12-01T14:08:13.048Z,10.10
2018-12-01T14:10:49.363Z,10.20
2018-12-01T14:13:17.611Z,10.20
2018-12-01T14:18:32.223Z,10.30
2018-12-01T14:21:06.741Z,10.30
2018-12-01T14:23:35.237Z,10.30
2018-12-01T14:26:04.165Z,10.30
2018-12-01T14:28:32.980Z,10.40
2018-12-01T14:31:01.424Z,10.40
2018-12-01T14:33:30.371Z,10.30
2018-12-01T14:35:59.509Z,10.30
2018-12-01T14:38:28.483Z,10.20
2018-12-01T14:40:57.534Z,10.30
2018-12-01T14:46:08.227Z,10.30
2018-12-01T14:48:36.882Z,10.20
2018-12-01T14:51:06.526Z,10.20
2018-12-01T14:53:36.785Z,10.20
2018-12-01T14:56:05.760Z,10.10
2018-12-01T14:58:34.401Z,10.10
2018-12-01T15:01:03.796Z,10.10
2018-12-01T15:03:32.265Z,10.00
2018-12-01T15:06:00.726Z,10.00
2018-12-01T15:08:29.099Z,10.00
2018-12-01T15:10:57.542Z,10.00
2018-12-01T15:13:25.998Z,10.00
2018-12-01T15:15:54.465Z,10.00
2018-12-01T15:18:22.943Z,10.00
2018-12-01T15:20:51.354Z,9.90
2018-12-01T15:23:21.282Z,9.90
2018-12-01T15:25:49.937Z,9.90
2018-12-01T15:28:18.471Z,9.90
2018-12-01T15:30:46.933Z,9.90
2018-12-01T15:33:16.290Z,9.90
2018-12-01T15:35:45.970Z,9.90
2018-12-01T15:38:18.623Z,9.90
2018-12-01T15:40:49.213Z,9.90
2018-12-01T15:43:17.771Z,9.90
2018-12-01T15:45:46.382Z,10.00
2018-12-01T15:48:14.939Z,10.00
2018-12-01T15:50:44.077Z,10.00
2018-12-01T15:53:15.250Z,10.00
2018-12-01T15:55:43.700Z,10.00
2018-12-01T15:58:13.056Z,10.00
2018-12-01T16:00:43.601Z,9.90
2018-12-01T16:03:12.350Z,9.90
2018-12-01T16:05:40.907Z,9.90
2018-12-01T16:08:11.933Z,9.80
2018-12-01T16:10:40.499Z,9.70
2018-12-01T16:13:16.825Z,9.60
2018-12-01T16:15:51.396Z,9.50
2018-12-01T16:18:20.373Z,9.50
2018-12-01T16:23:26.525Z,9.30
2018-12-01T16:25:56.178Z,9.20
2018-12-01T16:28:24.862Z,9.20
2018-12-01T16:30:54.498Z,9.10
2018-12-01T16:33:22.958Z,9.00
2018-12-01T16:35:51.797Z,9.00
2018-12-01T16:38:22.854Z,8.90
2018-12-01T16:40:58.484Z,8.90
2018-12-01T16:43:30.258Z,8.80
2018-12-01T16:46:00.158Z,8.80
2018-12-01T16:48:29.061Z,8.70
2018-12-01T16:50:58.054Z,8.70
2018-12-01T16:53:27.282Z,8.70
2018-12-01T16:55:56.468Z,8.70
2018-12-01T16:58:27.311Z,8.60
2018-12-01T17:00:57.338Z,8.60
2018-12-01T17:03:26.382Z,8.60
2018-12-01T17:05:59.925Z,8.60
2018-12-01T17:08:31.199Z,8.60
2018-12-01T17:11:02.531Z,8.60
2018-12-01T17:13:36.379Z,8.60
2018-12-01T17:16:07.840Z,8.60
2018-12-01T17:18:38.060Z,8.60
2018-12-01T17:21:07.567Z,8.50
2018-12-01T17:23:37.714Z,8.50
2018-12-01T17:26:23.403Z,8.40
2018-12-01T17:28:53.153Z,8.40
2018-12-01T17:31:22.461Z,8.30
2018-12-01T17:33:51.514Z,8.30
2018-12-01T17:36:20.039Z,8.20
2018-12-01T17:38:49.334Z,8.20
2018-12-01T17:41:23.684Z,8.20
2018-12-01T17:43:56.649Z,8.20
2018-12-01T17:46:25.453Z,8.20
2018-12-01T17:48:54.445Z,8.20
2018-12-01T17:51:23.738Z,8.10
2018-12-01T17:54:02.964Z,8.20
2018-12-01T17:56:32.090Z,8.10
2018-12-01T17:59:01.006Z,8.20
2018-12-01T18:01:29.957Z,8.20
2018-12-01T18:03:58.888Z,8.20
2018-12-01T18:06:27.707Z,8.20
2018-12-01T18:08:57.428Z,8.20
2018-12-01T18:11:29.529Z,8.20
2018-12-01T18:13:55.712Z,8.20
2018-12-01T18:16:24.496Z,8.20
2018-12-01T18:18:53.141Z,8.20
2018-12-01T18:21:21.868Z,8.20
2018-12-01T18:23:51.606Z,8.20
2018-12-01T18:26:19.961Z,8.30
2018-12-01T18:28:51.128Z,8.30
2018-12-01T18:31:24.945Z,8.30
2018-12-01T18:34:10.809Z,8.30
2018-12-01T18:36:39.378Z,8.30
2018-12-01T18:39:16.369Z,8.30
2018-12-01T18:41:45.637Z,8.30
2018-12-01T18:44:14.155Z,8.30
2018-12-01T18:46:42.855Z,8.30
2018-12-01T18:49:11.421Z,8.30
2018-12-01T18:51:40.279Z,8.30
2018-12-01T18:54:08.900Z,8.30
2018-12-01T18:59:25.568Z,8.40
2018-12-01T19:01:54.183Z,8.40
2018-12-01T19:04:22.758Z,8.40
2018-12-01T19:06:53.235Z,8.40
2018-12-01T19:09:21.802Z,8.30
2018-12-01T19:11:50.525Z,8.30
2018-12-01T19:14:19.679Z,8.40
2018-12-01T19:16:48.261Z,8.40
2018-12-01T19:19:16.828Z,8.40
2018-12-01T19:21:45.524Z,8.40
2018-12-01T19:24:14.227Z,8.40
2018-12-01T19:26:42.690Z,8.40
2018-12-01T19:29:11.438Z,8.40
2018-12-01T19:31:39.939Z,8.40
2018-12-01T19:34:08.535Z,8.30
2018-12-01T19:36:37.115Z,8.30
2018-12-01T19:39:07.469Z,8.30
2018-12-01T19:41:36.036Z,8.30
2018-12-01T19:44:05.019Z,8.30
2018-12-01T19:46:34.154Z,8.30
2018-12-01T19:49:02.926Z,8.30
2018-12-01T19:51:31.527Z,8.30
2018-12-01T19:54:00.181Z,8.40
2018-12-01T19:56:28.911Z,8.40
2018-12-01T19:58:57.825Z,8.30
2018-12-01T20:01:26.743Z,8.20
2018-12-01T20:03:56.455Z,8.20
2018-12-01T20:06:24.938Z,8.20
2018-12-01T20:08:53.938Z,8.20
2018-12-01T20:11:22.760Z,8.20
2018-12-01T20:13:51.450Z,8.20
2018-12-01T20:16:28.132Z,8.30
2018-12-01T20:18:57.243Z,8.30
2018-12-01T20:21:25.994Z,8.30
2018-12-01T20:23:56.024Z,8.20
2018-12-01T20:26:24.655Z,8.20
2018-12-01T20:28:53.357Z,8.20
2018-12-01T20:31:22.015Z,8.20
2018-12-01T20:33:53.310Z,8.20
2018-12-01T20:36:30.301Z,8.20
2018-12-01T20:39:13.956Z,8.30
2018-12-01T20:41:42.775Z,8.30
2018-12-01T20:44:11.552Z,8.30
2018-12-01T20:46:40.970Z,8.30
2018-12-01T20:49:09.720Z,8.30
2018-12-01T20:51:38.614Z,8.30
2018-12-01T20:54:43.465Z,8.20
2018-12-01T20:57:30.211Z,8.20
2018-12-01T21:00:00.256Z,8.20
2018-12-01T21:02:28.789Z,8.20
2018-12-01T21:04:57.635Z,8.30
2018-12-01T21:07:26.514Z,8.30
2018-12-01T21:09:55.286Z,8.20
2018-12-01T21:12:23.973Z,8.20
2018-12-01T21:17:36.905Z,8.20
2018-12-01T21:20:15.456Z,8.20
2018-12-01T21:22:51.199Z,8.20
2018-12-01T21:25:23.324Z,8.20
2018-12-01T21:27:52.880Z,8.30
2018-12-01T21:30:24.336Z,8.20
2018-12-01T21:32:57.093Z,8.20
2018-12-01T21:35:26.616Z,8.10
2018-12-01T21:37:55.685Z,8.10
2018-12-01T21:40:25.018Z,8.20
2018-12-01T21:42:56.517Z,8.20
2018-12-01T21:45:25.558Z,8.20
2018-12-01T21:47:54.356Z,8.30
2018-12-01T21:50:25.152Z,8.30
2018-12-01T21:52:57.367Z,8.30
2018-12-01T22:00:13.846Z,8.40
2018-12-01T22:06:18.915Z,8.40
2018-12-01T22:12:18.875Z,8.40
2018-12-01T22:18:04.997Z,8.40
2018-12-01T22:34:26.622Z,8.50
2018-12-01T22:36:55.076Z,8.50
2018-12-01T22:39:24.846Z,8.50
2018-12-01T22:41:54.270Z,8.60
2018-12-01T22:44:23.004Z,8.60
2018-12-01T22:46:51.581Z,8.60
2018-12-01T22:49:20.034Z,8.60
2018-12-01T22:51:48.555Z,8.60
2018-12-01T22:54:18.001Z,8.60
2018-12-01T22:56:48.017Z,8.60
2018-12-01T22:59:18.868Z,8.60
2018-12-01T23:01:48.623Z,8.60
2018-12-01T23:04:17.996Z,8.60
2018-12-01T23:06:47.780Z,8.60
2018-12-01T23:09:17.317Z,8.60
2018-12-01T23:11:46.339Z,8.60
2018-12-01T23:14:16.670Z,8.70
2018-12-01T23:16:45.960Z,8.70
2018-12-01T23:19:15.307Z,8.70
2018-12-01T23:21:45.245Z,8.60
2018-12-01T23:24:14.987Z,8.60
2018-12-01T23:26:53.271Z,8.60
2018-12-01T23:29:22.408Z,8.60
2018-12-01T23:31:51.656Z,8.60
2018-12-01T23:34:20.898Z,8.60
2018-12-01T23:36:50.489Z,8.50
2018-12-01T23:39:19.204Z,8.50
2018-12-01T23:41:47.972Z,8.50
2018-12-01T23:44:27.982Z,8.50
2018-12-01T23:46:57.328Z,8.50
2018-12-01T23:49:25.692Z,8.60
2018-12-01T23:51:55.650Z,8.60
2018-12-01T23:54:24.717Z,8.60
2018-12-01T23:56:53.753Z,8.60
2018-12-01T23:59:22.367Z,8.60
